createdAt,value
2023-09-26T00:07:37.733Z,5.60
2023-09-26T00:10:13.425Z,4.50
2023-09-26T00:12:47.040Z,4.00
2023-09-26T00:15:21.989Z,4.60
2023-09-26T00:18:01.062Z,4.40
2023-09-26T00:20:38.977Z,4.30
2023-09-26T00:23:13.702Z,4.20
2023-09-26T00:25:47.302Z,3.70
2023-09-26T00:28:20.265Z,4.20
2023-09-26T00:30:53.816Z,4.10
2023-09-26T00:33:27.083Z,4.30
2023-09-26T00:36:03.078Z,4.40
2023-09-26T00:38:40.785Z,4.00
2023-09-26T00:41:14.212Z,4.00
2023-09-26T00:43:48.039Z,4.10
2023-09-26T00:46:22.299Z,3.90
2023-09-26T00:48:55.659Z,4.40
2023-09-26T00:51:28.765Z,4.20
2023-09-26T00:54:03.913Z,4.00
2023-09-26T00:56:36.276Z,4.40
2023-09-26T00:59:11.164Z,4.30
2023-09-26T01:01:51.047Z,3.90
2023-09-26T01:04:26.974Z,4.50
2023-09-26T01:06:59.729Z,4.10
2023-09-26T01:09:34.014Z,4.60
2023-09-26T01:12:07.054Z,3.80
2023-09-26T01:14:42.083Z,4.20
2023-09-26T01:17:15.790Z,4.30
2023-09-26T01:19:48.544Z,4.30
2023-09-26T01:22:25.187Z,4.50
2023-09-26T01:24:59.396Z,4.20
2023-09-26T01:27:32.267Z,4.00
2023-09-26T01:30:08.580Z,4.10
2023-09-26T01:32:42.656Z,4.50
2023-09-26T01:35:20.943Z,4.70
2023-09-26T01:37:53.457Z,4.80
2023-09-26T01:40:26.601Z,4.60
2023-09-26T01:42:59.499Z,3.90
2023-09-26T01:45:35.637Z,4.20
2023-09-26T01:48:11.985Z,4.70
2023-09-26T01:50:45.896Z,4.80
2023-09-26T01:53:19.969Z,4.60
2023-09-26T01:55:53.385Z,4.80
2023-09-26T01:58:26.102Z,4.50
2023-09-26T02:00:58.707Z,5.00
2023-09-26T02:03:31.593Z,5.00
2023-09-26T02:06:04.514Z,4.50
2023-09-26T02:45:58.909Z,4.30
2023-09-26T02:48:31.554Z,4.30
2023-09-26T02:51:07.688Z,4.70
2023-09-26T02:53:40.211Z,4.20
2023-09-26T02:56:15.595Z,4.50
2023-09-26T02:58:50.732Z,4.40
2023-09-26T03:01:23.786Z,5.10
2023-09-26T03:03:56.946Z,4.50
2023-09-26T03:06:29.643Z,4.50
2023-09-26T03:09:02.343Z,5.00
2023-09-26T03:11:35.215Z,4.40
2023-09-26T03:14:08.122Z,4.60
2023-09-26T03:16:41.317Z,5.10
2023-09-26T03:19:16.236Z,4.90
2023-09-26T03:21:51.058Z,4.30
2023-09-26T03:24:25.646Z,4.50
2023-09-26T03:26:59.539Z,5.40
2023-09-26T03:29:32.293Z,4.90
2023-09-26T03:32:05.324Z,4.60
2023-09-26T03:34:40.117Z,4.40
2023-09-26T03:37:13.233Z,5.00
2023-09-26T03:39:49.216Z,4.60
2023-09-26T03:42:21.772Z,4.50
2023-09-26T03:44:57.282Z,4.70
2023-09-26T03:48:01.050Z,4.60
2023-09-26T03:50:56.507Z,4.60
2023-09-26T03:53:31.654Z,4.80
2023-09-26T03:56:07.658Z,4.00
2023-09-26T03:58:47.818Z,4.80
2023-09-26T04:01:21.155Z,5.30
2023-09-26T04:03:55.478Z,4.70
2023-09-26T04:06:36.040Z,3.80
2023-09-26T04:09:10.305Z,4.40
2023-09-26T04:11:43.494Z,4.30
2023-09-26T04:14:19.329Z,5.40
2023-09-26T04:16:59.416Z,5.20
2023-09-26T04:19:35.796Z,4.80
2023-09-26T04:22:08.798Z,4.80
2023-09-26T04:24:42.482Z,4.70
2023-09-26T04:27:19.199Z,5.40
2023-09-26T04:29:53.983Z,4.90
2023-09-26T04:32:32.602Z,5.30
2023-09-26T04:35:05.761Z,4.90
2023-09-26T04:37:38.661Z,4.70
2023-09-26T04:40:15.076Z,5.00
2023-09-26T04:42:53.917Z,5.10
2023-09-26T04:45:32.769Z,5.00
2023-09-26T04:48:10.365Z,5.70
2023-09-26T04:50:43.073Z,5.30
2023-09-26T04:53:17.782Z,5.10
2023-09-26T04:55:51.241Z,5.60
2023-09-26T04:58:24.589Z,5.30
2023-09-26T05:00:57.985Z,5.20
2023-09-26T05:03:31.724Z,6.00
2023-09-26T05:06:04.418Z,4.90
2023-09-26T05:08:37.766Z,5.60
2023-09-26T05:11:17.453Z,5.40
2023-09-26T05:13:55.393Z,4.80
2023-09-26T05:16:28.869Z,6.00
2023-09-26T05:19:01.421Z,5.00
2023-09-26T05:21:34.455Z,5.40
2023-09-26T05:24:10.369Z,5.30
2023-09-26T05:26:43.913Z,6.00
2023-09-26T05:29:17.819Z,5.30
2023-09-26T05:31:51.737Z,6.00
2023-09-26T05:34:25.032Z,5.10
2023-09-26T05:36:57.823Z,5.40
2023-09-26T05:39:30.857Z,5.40
2023-09-26T05:42:03.813Z,5.40
2023-09-26T05:44:36.717Z,5.70
2023-09-26T05:47:10.858Z,6.10
2023-09-26T05:49:43.928Z,5.30
2023-09-26T05:52:18.184Z,5.80
2023-09-26T05:54:51.560Z,5.90
2023-09-26T05:57:24.418Z,5.80
2023-09-26T05:59:57.608Z,6.10
2023-09-26T06:02:33.415Z,6.60
2023-09-26T06:05:07.298Z,6.70
2023-09-26T06:07:40.399Z,6.30
2023-09-26T06:10:14.459Z,6.90
2023-09-26T06:12:50.333Z,6.50
2023-09-26T06:15:23.245Z,5.90
2023-09-26T06:18:00.953Z,6.40
2023-09-26T06:20:35.883Z,6.30
2023-09-26T06:23:10.256Z,6.20
2023-09-26T06:25:55.948Z,6.30
2023-09-26T06:28:29.741Z,6.00
2023-09-26T06:31:08.016Z,6.40
2023-09-26T06:33:43.130Z,6.00
2023-09-26T06:36:25.594Z,5.70
2023-09-26T06:39:05.855Z,5.40
2023-09-26T06:41:39.623Z,5.50
2023-09-26T06:44:12.812Z,5.20
2023-09-26T06:46:49.461Z,5.50
2023-09-26T06:49:22.045Z,5.20
2023-09-26T06:51:54.860Z,4.90
2023-09-26T06:54:27.464Z,5.50
2023-09-26T06:57:00.572Z,5.40
2023-09-26T06:59:34.000Z,5.50
2023-09-26T07:02:08.131Z,4.60
2023-09-26T07:04:40.889Z,5.20
2023-09-26T07:07:19.283Z,5.10
2023-09-26T07:09:51.900Z,5.00
2023-09-26T07:12:27.475Z,5.40
2023-09-26T07:15:02.640Z,5.30
2023-09-26T07:17:37.135Z,5.60
2023-09-26T07:20:16.084Z,5.30
2023-09-26T07:22:57.060Z,5.20
2023-09-26T07:25:36.405Z,4.80
2023-09-26T07:28:10.574Z,5.20
2023-09-26T07:30:44.079Z,5.30
2023-09-26T07:33:18.389Z,5.20
2023-09-26T07:36:02.252Z,5.60
2023-09-26T07:38:45.995Z,4.40
2023-09-26T07:41:18.890Z,4.50
2023-09-26T07:43:52.351Z,4.70
2023-09-26T07:46:25.961Z,4.60
2023-09-26T07:48:59.166Z,4.90
2023-09-26T07:51:43.368Z,5.20
2023-09-26T07:54:17.958Z,4.70
2023-09-26T07:56:50.546Z,5.00
2023-09-26T07:59:24.121Z,5.30
2023-09-26T08:01:56.942Z,5.30
2023-09-26T08:04:29.734Z,5.60
2023-09-26T08:07:03.380Z,4.90
2023-09-26T08:09:36.380Z,5.70
2023-09-26T08:12:11.108Z,4.80
2023-09-26T08:14:43.708Z,5.20
2023-09-26T08:17:19.262Z,5.50
2023-09-26T08:19:52.235Z,5.70
2023-09-26T08:22:26.558Z,6.30
2023-09-26T08:24:59.011Z,5.40
2023-09-26T08:27:33.416Z,6.30
2023-09-26T08:30:09.185Z,5.30
2023-09-26T08:32:42.714Z,6.10
2023-09-26T08:35:20.336Z,5.20
2023-09-26T08:37:54.699Z,5.70
2023-09-26T08:40:29.807Z,5.50
2023-09-26T08:43:09.187Z,5.50
2023-09-26T08:45:42.789Z,5.50
2023-09-26T08:48:17.507Z,5.80
2023-09-26T08:50:50.596Z,5.10
2023-09-26T08:53:38.164Z,5.20
2023-09-26T08:56:10.973Z,5.40
2023-09-26T08:58:45.824Z,5.30
2023-09-26T09:01:20.786Z,5.30
2023-09-26T09:03:53.727Z,5.50
2023-09-26T09:06:26.491Z,5.20
2023-09-26T09:09:11.712Z,5.20
2023-09-26T09:11:46.777Z,5.10
2023-09-26T09:14:35.277Z,4.60
2023-09-26T09:17:07.979Z,5.10
2023-09-26T09:19:51.340Z,4.50
2023-09-26T09:22:26.092Z,5.00
2023-09-26T09:24:59.888Z,5.10
2023-09-26T09:27:39.795Z,4.50
2023-09-26T09:30:16.902Z,4.90
2023-09-26T09:32:50.094Z,4.40
2023-09-26T09:35:24.114Z,5.00
2023-09-26T09:37:58.827Z,4.50
2023-09-26T09:40:32.498Z,5.10
2023-09-26T09:43:05.794Z,4.70
2023-09-26T09:45:40.200Z,4.50
2023-09-26T09:48:15.634Z,4.70
2023-09-26T09:50:53.862Z,4.50
2023-09-26T09:53:31.007Z,4.50
2023-09-26T09:56:07.795Z,3.90
2023-09-26T09:58:47.051Z,4.50
2023-09-26T10:01:25.711Z,5.20
2023-09-26T10:04:02.773Z,3.70
2023-09-26T10:06:35.784Z,4.00
2023-09-26T10:09:09.646Z,3.80
2023-09-26T10:11:42.440Z,4.30
2023-09-26T10:19:52.615Z,3.60
2023-09-26T10:22:37.039Z,3.90
2023-09-26T10:25:14.362Z,4.00
2023-09-26T10:28:01.068Z,3.70
2023-09-26T10:30:47.407Z,3.80
2023-09-26T10:36:20.281Z,4.20
2023-09-26T10:39:08.729Z,4.00
2023-09-26T10:42:01.201Z,4.20
2023-09-26T10:44:39.433Z,4.90
2023-09-26T10:47:17.909Z,5.00
2023-09-26T10:49:53.075Z,4.40
2023-09-26T10:52:33.545Z,4.20
2023-09-26T10:55:07.480Z,4.40
2023-09-26T10:57:41.639Z,4.60
2023-09-26T11:00:20.800Z,4.60
2023-09-26T11:02:58.237Z,4.40
2023-09-26T11:05:35.101Z,4.30
2023-09-26T11:08:12.729Z,4.20
2023-09-26T11:10:51.796Z,4.10
2023-09-26T11:13:26.563Z,3.70
2023-09-26T11:15:59.502Z,3.60
2023-09-26T11:18:33.054Z,4.20
2023-09-26T11:21:24.096Z,3.50
2023-09-26T11:24:00.698Z,3.90
2023-09-26T11:26:33.838Z,3.50
2023-09-26T11:29:07.185Z,3.40
2023-09-26T11:31:41.205Z,3.30
2023-09-26T11:34:13.956Z,3.80
2023-09-26T11:36:47.349Z,3.70
2023-09-26T11:39:22.103Z,3.70
2023-09-26T11:42:07.709Z,3.50
2023-09-26T11:44:53.001Z,3.50
2023-09-26T11:47:28.265Z,4.10
2023-09-26T11:50:01.443Z,4.50
2023-09-26T11:52:35.243Z,4.40
2023-09-26T11:55:10.402Z,5.00
2023-09-26T11:57:48.303Z,4.30
2023-09-26T12:00:25.670Z,4.00
2023-09-26T12:02:58.805Z,4.20
2023-09-26T12:05:31.890Z,4.40
2023-09-26T12:08:04.968Z,4.40
2023-09-26T12:10:43.523Z,4.30
2023-09-26T12:13:17.469Z,3.90
2023-09-26T12:15:50.233Z,4.40
2023-09-26T12:18:24.478Z,3.50
2023-09-26T12:20:57.327Z,4.10
2023-09-26T12:23:30.555Z,3.20
2023-09-26T12:26:03.863Z,3.60
2023-09-26T12:28:37.580Z,3.90
2023-09-26T12:31:10.093Z,3.40
2023-09-26T12:33:43.527Z,3.70
2023-09-26T12:36:19.520Z,3.60
2023-09-26T12:38:52.518Z,3.40
2023-09-26T12:41:28.003Z,3.40
2023-09-26T12:44:00.872Z,3.60
2023-09-26T12:46:33.887Z,3.70
2023-09-26T12:49:07.168Z,3.90
2023-09-26T12:51:40.146Z,3.60
2023-09-26T12:54:13.003Z,3.50
2023-09-26T12:56:45.470Z,3.50
2023-09-26T12:59:20.021Z,3.20
2023-09-26T13:01:53.547Z,3.20
2023-09-26T13:04:26.801Z,3.60
2023-09-26T13:06:59.395Z,3.80
2023-09-26T13:09:32.408Z,3.80
2023-09-26T13:12:05.597Z,3.70
2023-09-26T13:14:38.998Z,3.50
2023-09-26T13:17:14.397Z,3.70
2023-09-26T13:19:48.373Z,2.90
2023-09-26T13:22:21.650Z,3.60
2023-09-26T13:24:54.567Z,3.00
2023-09-26T13:27:27.202Z,3.20
2023-09-26T13:30:00.061Z,2.80
2023-09-26T13:32:32.870Z,2.80
2023-09-26T13:35:06.299Z,3.20
2023-09-26T13:37:40.017Z,2.90
2023-09-26T13:40:13.225Z,2.80
2023-09-26T13:42:46.432Z,3.10
2023-09-26T13:45:23.137Z,3.10
2023-09-26T13:47:56.836Z,3.10
2023-09-26T13:50:29.675Z,2.90
2023-09-26T13:53:02.792Z,3.00
2023-09-26T13:55:35.272Z,3.20
2023-09-26T13:58:08.506Z,2.90
2023-09-26T14:00:41.053Z,2.70
2023-09-26T14:03:13.591Z,3.10
2023-09-26T14:05:47.073Z,3.10
2023-09-26T14:08:21.183Z,3.10
2023-09-26T14:10:54.719Z,3.10
2023-09-26T14:13:31.212Z,3.30
2023-09-26T14:16:06.506Z,2.80
2023-09-26T14:18:45.092Z,2.60
2023-09-26T14:21:24.700Z,2.90
2023-09-26T14:24:09.211Z,3.20
2023-09-26T14:26:48.362Z,2.90
2023-09-26T14:29:34.188Z,3.40
2023-09-26T14:32:09.397Z,3.10
2023-09-26T14:34:47.031Z,2.80
2023-09-26T14:37:22.765Z,2.80
2023-09-26T14:40:00.942Z,2.90
2023-09-26T14:42:44.777Z,2.70
2023-09-26T14:45:21.601Z,3.00
2023-09-26T14:47:55.278Z,2.90
2023-09-26T14:50:27.994Z,3.00
2023-09-26T14:53:06.127Z,3.50
2023-09-26T14:55:40.739Z,3.20
2023-09-26T14:58:14.738Z,3.00
2023-09-26T15:00:58.488Z,2.40
2023-09-26T15:03:37.130Z,2.60
2023-09-26T15:06:13.164Z,2.50
2023-09-26T15:08:49.416Z,2.90
2023-09-26T15:11:22.586Z,2.90
2023-09-26T15:13:55.759Z,3.10
2023-09-26T15:16:28.754Z,3.00
2023-09-26T15:19:02.634Z,3.00
2023-09-26T15:21:35.465Z,3.00
2023-09-26T15:24:09.413Z,3.00
2023-09-26T15:26:42.941Z,2.90
2023-09-26T15:29:17.260Z,3.00
2023-09-26T15:31:51.390Z,3.40
2023-09-26T15:34:26.305Z,3.40
2023-09-26T15:37:00.583Z,3.40
2023-09-26T15:39:39.638Z,3.10
2023-09-26T15:42:12.384Z,3.40
2023-09-26T15:44:45.328Z,3.00
2023-09-26T15:47:19.711Z,3.20
2023-09-26T15:50:04.393Z,3.20
2023-09-26T15:52:47.718Z,3.50
2023-09-26T15:55:25.918Z,3.80
2023-09-26T15:58:02.309Z,3.20
2023-09-26T16:00:40.246Z,3.00
2023-09-26T16:03:13.225Z,2.90
2023-09-26T16:12:15.259Z,3.50
2023-09-26T16:14:49.051Z,3.50
2023-09-26T16:17:26.154Z,3.70
2023-09-26T16:19:59.241Z,3.70
2023-09-26T16:22:32.086Z,3.40
2023-09-26T16:25:08.308Z,3.30
2023-09-26T16:27:58.549Z,3.80
2023-09-26T16:30:38.621Z,3.60
2023-09-26T16:33:26.478Z,3.90
2023-09-26T16:36:10.126Z,4.60
2023-09-26T16:41:45.096Z,4.10
2023-09-26T16:44:39.942Z,4.10
2023-09-26T16:47:13.134Z,4.20
2023-09-26T16:49:45.898Z,4.20
2023-09-26T16:52:24.950Z,4.50
2023-09-26T16:54:58.152Z,4.40
2023-09-26T16:57:31.270Z,3.90
2023-09-26T17:00:06.078Z,4.00
2023-09-26T17:02:38.895Z,4.60
2023-09-26T17:05:13.984Z,4.40
2023-09-26T17:07:48.200Z,3.60
2023-09-26T17:10:22.629Z,3.70
2023-09-26T17:12:58.599Z,4.50
2023-09-26T17:15:32.864Z,4.10
2023-09-26T17:18:06.877Z,4.10
2023-09-26T17:20:39.810Z,3.70
2023-09-26T17:23:12.531Z,3.90
2023-09-26T17:25:48.385Z,4.20
2023-09-26T17:28:22.438Z,4.10
2023-09-26T17:30:59.803Z,3.70
2023-09-26T17:33:37.051Z,3.60
2023-09-26T17:36:10.299Z,3.60
2023-09-26T17:38:47.522Z,3.80
2023-09-26T17:44:02.239Z,3.40
2023-09-26T17:46:46.668Z,3.80
2023-09-26T17:49:20.228Z,3.80
2023-09-26T17:51:59.576Z,3.60
2023-09-26T17:54:32.503Z,3.40
2023-09-26T17:57:07.853Z,3.60
2023-09-26T17:59:40.628Z,3.60
2023-09-26T18:02:13.365Z,3.90
2023-09-26T18:04:48.667Z,3.70
2023-09-26T18:07:22.758Z,3.50
2023-09-26T18:09:58.715Z,3.80
2023-09-26T18:12:31.631Z,3.70
2023-09-26T18:15:06.757Z,4.00
2023-09-26T18:17:40.081Z,4.10
2023-09-26T18:20:14.852Z,4.00
2023-09-26T18:22:48.083Z,3.70
2023-09-26T18:28:32.887Z,4.00
2023-09-26T18:31:06.726Z,4.00
2023-09-26T18:33:39.353Z,3.80
2023-09-26T18:36:12.140Z,4.10
2023-09-26T18:38:44.830Z,4.40
2023-09-26T18:41:19.446Z,4.00
2023-09-26T18:43:56.299Z,3.60
2023-09-26T18:46:29.285Z,3.50
2023-09-26T18:49:02.362Z,4.40
2023-09-26T18:51:45.782Z,4.20
2023-09-26T18:54:18.723Z,4.20
2023-09-26T18:56:57.208Z,4.20
2023-09-26T18:59:34.197Z,4.20
2023-09-26T19:02:11.362Z,4.30
2023-09-26T19:05:16.520Z,4.70
2023-09-26T19:08:01.983Z,4.40
2023-09-26T19:10:41.774Z,4.60
2023-09-26T19:13:18.257Z,4.00
2023-09-26T19:15:59.055Z,4.80
2023-09-26T19:19:02.035Z,3.90
2023-09-26T19:21:39.616Z,4.40
2023-09-26T19:24:13.206Z,5.10
2023-09-26T19:26:46.792Z,4.20
2023-09-26T19:29:21.545Z,4.40
2023-09-26T19:32:01.204Z,4.70
2023-09-26T19:34:37.744Z,4.30
2023-09-26T19:37:10.456Z,4.70
2023-09-26T19:39:43.021Z,4.60
2023-09-26T19:42:16.452Z,4.90
2023-09-26T19:44:52.512Z,4.40
2023-09-26T19:47:26.243Z,5.00
2023-09-26T19:49:59.779Z,4.40
2023-09-26T19:52:33.723Z,5.10
2023-09-26T19:55:08.636Z,4.50
2023-09-26T19:57:53.193Z,4.70
2023-09-26T20:00:27.969Z,5.10
2023-09-26T20:03:00.497Z,4.20
2023-09-26T20:05:34.189Z,4.10
2023-09-26T20:08:07.525Z,4.80
2023-09-26T20:10:40.441Z,4.40
2023-09-26T20:13:13.646Z,4.50
2023-09-26T20:15:53.081Z,4.40
2023-09-26T20:18:26.407Z,4.60
2023-09-26T20:20:59.292Z,4.80
2023-09-26T20:23:31.949Z,4.50
2023-09-26T20:26:05.561Z,4.70
2023-09-26T20:28:39.824Z,4.80
2023-09-26T20:31:18.203Z,4.70
2023-09-26T20:33:55.053Z,4.50
2023-09-26T20:36:29.773Z,8.90
2023-09-26T20:39:03.298Z,33.40
2023-09-26T20:41:41.483Z,15.20
2023-09-26T20:44:14.513Z,14.50
2023-09-26T20:46:48.043Z,13.40
2023-09-26T20:49:24.835Z,10.50
2023-09-26T20:52:00.724Z,8.20
2023-09-26T20:54:36.665Z,7.20
2023-09-26T20:57:11.619Z,6.60
2023-09-26T20:59:46.421Z,6.40
2023-09-26T21:02:19.500Z,5.20
2023-09-26T21:04:59.494Z,5.70
2023-09-26T21:07:33.930Z,5.10
2023-09-26T21:10:07.971Z,4.80
2023-09-26T21:12:41.478Z,4.50
2023-09-26T21:15:15.337Z,4.80
2023-09-26T21:17:48.628Z,4.90
2023-09-26T21:20:27.485Z,4.40
2023-09-26T21:23:03.811Z,4.20
2023-09-26T21:25:40.802Z,4.20
2023-09-26T21:28:14.723Z,4.10
2023-09-26T21:30:48.311Z,4.50
2023-09-26T21:33:21.569Z,4.50
2023-09-26T21:36:00.333Z,4.80
2023-09-26T21:38:33.258Z,4.40
2023-09-26T21:41:10.246Z,4.20
2023-09-26T21:43:43.869Z,4.30
2023-09-26T21:46:21.852Z,4.00
2023-09-26T21:48:55.643Z,3.90
2023-09-26T21:51:30.796Z,3.90
2023-09-26T21:54:04.549Z,4.60
2023-09-26T21:56:39.643Z,4.20
2023-09-26T21:59:15.935Z,4.60
2023-09-26T22:01:50.292Z,4.60
2023-09-26T22:04:24.305Z,4.00
2023-09-26T22:06:58.643Z,4.80
2023-09-26T22:09:32.020Z,4.30
2023-09-26T22:12:06.323Z,4.30
2023-09-26T22:14:51.190Z,4.00
2023-09-26T22:17:28.134Z,4.20
2023-09-26T22:20:06.751Z,4.90
2023-09-26T22:22:44.477Z,4.50
2023-09-26T22:25:31.186Z,4.60
2023-09-26T22:28:11.250Z,4.50
2023-09-26T22:30:51.103Z,4.30
2023-09-26T22:33:27.858Z,4.80
2023-09-26T22:36:02.289Z,4.00
2023-09-26T22:38:37.385Z,4.50
2023-09-26T22:41:12.380Z,4.30
2023-09-26T22:43:46.839Z,4.40
2023-09-26T22:46:22.469Z,4.30
2023-09-26T22:48:56.198Z,4.10
2023-09-26T22:51:31.399Z,4.30
2023-09-26T22:54:06.071Z,4.30
2023-09-26T22:56:51.751Z,4.80
2023-09-26T22:59:28.030Z,4.40
2023-09-26T23:02:09.775Z,4.90
2023-09-26T23:04:54.425Z,4.60
2023-09-26T23:07:27.273Z,5.00
2023-09-26T23:10:04.792Z,4.90
2023-09-26T23:12:40.753Z,4.60
2023-09-26T23:15:18.206Z,5.00
2023-09-26T23:17:52.429Z,5.00
2023-09-26T23:20:27.892Z,5.00
2023-09-26T23:23:01.181Z,4.70
2023-09-26T23:25:36.557Z,4.60
2023-09-26T23:28:11.224Z,4.80
2023-09-26T23:30:56.164Z,4.80
2023-09-26T23:33:36.060Z,4.70
2023-09-26T23:36:13.763Z,4.30
2023-09-26T23:41:26.417Z,4.50
2023-09-26T23:44:00.948Z,4.10
2023-09-26T23:46:35.658Z,4.30
2023-09-26T23:49:09.647Z,4.70
